^^
MeteoGriva-Weather Station Historical Data
Daily Summary for June 16, 2020 Units:  Metric    English   Both
Daily Weekly Monthly Yearly Custom
  High: Low: Average:
Temperature: 15.7 °C 8 °C 11.3 °C
Dew Point: 12.2 °C 6.5 °C 9.2 °C
Humidity: 99% 78.7% 88%
Wind Speed: 4km/h 0km/h 0.2km/h
Wind Gust: 16.3km/h - -
Wind- - SE
Pressure: 1021.3 hPa 1017.6 hPa -
Precipitation: 0.0 mm    
Historical Graphs
 
 
Tabular Data for June 16, 2020
Time Temperature Dew Point Pressure Wind Wind Speed Wind Gust Humidity Rainfall Rate (Hourly) solar
00:04 10.2 °C 6.9 °C 1021.3 hPa Calm     80% 0.0 mm 0 W/m2
00:09 10.2 °C 6.9 °C 1021.3 hPa Calm     79.8% 0.0 mm 0 W/m2
00:14 10.2 °C 6.7 °C 1021.3 hPa Calm     79.1% 0.0 mm 0 W/m2
00:19 10.2 °C 6.9 °C 1021.3 hPa Calm     79.8% 0.0 mm 0 W/m2
00:24 10.2 °C 7 °C 1021.3 hPa Calm     80.7% 0.0 mm 0 W/m2
00:29 10.1 °C 6.9 °C 1021.3 hPa Calm     80.2% 0.0 mm 0 W/m2
00:34 10.1 °C 7 °C 1021.3 hPa Calm     81% 0.0 mm 0 W/m2
00:39 9.7 °C 6.8 °C 1021.3 hPa Calm     82.6% 0.0 mm 0 W/m2
00:44 9.5 °C 6.9 °C 1021.3 hPa Calm     84% 0.0 mm 0 W/m2
00:49 9.5 °C 6.6 °C 1021.3 hPa Calm     82.4% 0.0 mm 0 W/m2
00:54 9.4 °C 6.6 °C 1021.3 hPa Calm     82.6% 0.0 mm 0 W/m2
00:59 9.6 °C 6.9 °C 1021.3 hPa Calm     83.1% 0.0 mm 0 W/m2
01:04 9.5 °C 6.9 °C 1021.3 hPa Calm     84% 0.0 mm 0 W/m2
01:09 9.4 °C 6.8 °C 1021.3 hPa Calm     83.7% 0.0 mm 0 W/m2
01:14 9.4 °C 6.6 °C 1021.3 hPa Calm     82.3% 0.0 mm 0 W/m2
01:19 9.2 °C 6.6 °C 1021.0 hPa Calm     84.1% 0.0 mm 0 W/m2
01:24 9.1 °C 6.6 °C 1021.3 hPa Calm     84.6% 0.0 mm 0 W/m2
01:29 9 °C 6.7 °C 1021.3 hPa Calm     85% 0.0 mm 0 W/m2
01:34 9 °C 6.5 °C 1021.3 hPa Calm     84.7% 0.0 mm 0 W/m2
01:39 9.2 °C 6.6 °C 1021.3 hPa Calm     83.2% 0.0 mm 0 W/m2
01:44 9.2 °C 6.7 °C 1021.3 hPa Calm     84.3% 0.0 mm 0 W/m2
01:49 9.2 °C 6.8 °C 1021.0 hPa Calm     85% 0.0 mm 0 W/m2
01:54 9.2 °C 6.5 °C 1021.0 hPa Calm     83% 0.0 mm 0 W/m2
01:59 9.4 °C 6.7 °C 1021.3 hPa Calm     83.9% 0.0 mm 0 W/m2
02:04 9.4 °C 6.8 °C 1021.3 hPa Calm     83.8% 0.0 mm 0 W/m2
02:09 9.4 °C 6.8 °C 1021.0 hPa Calm     83.6% 0.0 mm 0 W/m2
02:14 9.4 °C 6.7 °C 1021.0 hPa Calm     83% 0.0 mm 0 W/m2
02:19 9.6 °C 6.9 °C 1021.0 hPa Calm     83.3% 0.0 mm 0 W/m2
02:24 9.6 °C 6.9 °C 1021.0 hPa Calm     83.4% 0.0 mm 0 W/m2
02:29 9.6 °C 7 °C 1021.0 hPa Calm     83.8% 0.0 mm 0 W/m2
02:34 9.6 °C 7 °C 1021.0 hPa Calm     84% 0.0 mm 0 W/m2
02:39 9.5 °C 6.9 °C 1021.0 hPa Calm     84% 0.0 mm 0 W/m2
02:44 9.4 °C 6.9 °C 1021.0 hPa Calm     84.4% 0.0 mm 0 W/m2
02:49 9.4 °C 6.8 °C 1021.3 hPa Calm     84.2% 0.0 mm 0 W/m2
02:54 9.4 °C 6.8 °C 1021.3 hPa Calm     84% 0.0 mm 0 W/m2
02:59 9.5 °C 6.9 °C 1021.0 hPa Calm     84% 0.0 mm 0 W/m2
03:04 9.5 °C 6.9 °C 1021.0 hPa Calm     84% 0.0 mm 0 W/m2
03:09 9.5 °C 7 °C 1021.0 hPa Calm     84.6% 0.0 mm 0 W/m2
03:14 9.4 °C 7.2 °C 1021.0 hPa Calm     85.6% 0.0 mm 0 W/m2
03:19 9.3 °C 7 °C 1021.0 hPa Calm     85.7% 0.0 mm 0 W/m2
03:24 9.2 °C 6.8 °C 1021.0 hPa Calm     85% 0.0 mm 0 W/m2
03:29 9.2 °C 6.9 °C 1021.0 hPa Calm     85.4% 0.0 mm 0 W/m2
03:34 9.2 °C 6.8 °C 1020.7 hPa Calm     85% 0.0 mm 0 W/m2
03:39 9.3 °C 7 °C 1020.7 hPa Calm     85.6% 0.0 mm 0 W/m2
03:44 9.3 °C 7 °C 1020.7 hPa Calm     85.1% 0.0 mm 0 W/m2
03:49 9.3 °C 7 °C 1020.7 hPa Calm     85.4% 0.0 mm 0 W/m2
03:54 9.3 °C 7 °C 1020.7 hPa Calm     85.7% 0.0 mm 0 W/m2
03:59 9.3 °C 7 °C 1020.3 hPa Calm     85.4% 0.0 mm 0 W/m2
04:04 9.3 °C 7.2 °C 1020.3 hPa Calm     86.4% 0.0 mm 0 W/m2
04:09 9.3 °C 7.2 °C 1020.3 hPa Calm     87% 0.0 mm 0 W/m2
04:14 9.2 °C 7.1 °C 1020.3 hPa Calm     87% 0.0 mm 0 W/m2
04:19 9.2 °C 7.1 °C 1020.3 hPa Calm     87% 0.0 mm 0 W/m2
04:24 9.1 °C 6.9 °C 1020.7 hPa Calm     85.8% 0.0 mm 0 W/m2
04:29 9.1 °C 7 °C 1020.7 hPa Calm     86.3% 0.0 mm 0 W/m2
04:34 9.1 °C 7 °C 1020.3 hPa Calm     86.3% 0.0 mm 0 W/m2
04:39 9.2 °C 7 °C 1020.3 hPa Calm     86% 0.0 mm 0 W/m2
04:44 9.2 °C 6.9 °C 1020.3 hPa Calm     85.4% 0.0 mm 0 W/m2
04:49 9.2 °C 6.8 °C 1020.3 hPa Calm     85% 0.0 mm 0 W/m2
04:54 9.2 °C 6.8 °C 1020.3 hPa Calm     85% 0.0 mm 0 W/m2
04:59 9.1 °C 6.9 °C 1020.3 hPa Calm     85.9% 0.0 mm 0 W/m2
05:04 9 °C 6.8 °C 1020.3 hPa Calm     86% 0.0 mm 0 W/m2
05:09 8.9 °C 6.9 °C 1020.3 hPa Calm     87% 0.0 mm 0 W/m2
05:14 8.9 °C 6.9 °C 1020.3 hPa Calm     87.1% 0.0 mm 0 W/m2
05:19 8.8 °C 6.8 °C 1020.3 hPa Calm     87.1% 0.0 mm 0 W/m2
05:24 8.6 °C 6.6 °C 1020.3 hPa Calm     87% 0.0 mm 0 W/m2
05:29 8.6 °C 6.7 °C 1020.7 hPa Calm     87.7% 0.0 mm 0 W/m2
05:34 8.6 °C 6.7 °C 1020.3 hPa Calm     88% 0.0 mm 0 W/m2
05:39 8.7 °C 6.7 °C 1020.3 hPa Calm     87.7% 0.0 mm 0 W/m2
05:44 8.7 °C 6.8 °C 1020.3 hPa Calm     88% 0.0 mm 0 W/m2
05:49 8.7 °C 6.9 °C 1020.3 hPa Calm     88.8% 0.0 mm 0 W/m2
05:54 8.6 °C 7.1 °C 1020.7 hPa Calm     90.3% 0.0 mm 0 W/m2
05:59 8.4 °C 7 °C 1020.7 hPa Calm     91.2% 0.0 mm 0 W/m2
06:04 8.2 °C 6.8 °C 1020.3 hPa Calm     90.7% 0.0 mm 0 W/m2
06:09 8.2 °C 6.8 °C 1020.7 hPa Calm     90.6% 0.0 mm 0 W/m2
06:14 8.2 °C 6.7 °C 1020.3 hPa Calm     89.9% 0.0 mm 0 W/m2
06:19 8.3 °C 6.8 °C 1020.3 hPa Calm     89.7% 0.0 mm 0 W/m2
06:24 8.4 °C 7 °C 1020.3 hPa Calm     90.8% 0.0 mm 0 W/m2
06:29 8.4 °C 7 °C 1020.3 hPa Calm     90.7% 0.0 mm 0 W/m2
06:34 8.4 °C 7 °C 1020.3 hPa Calm     90.6% 0.0 mm 0 W/m2
06:39 8.3 °C 7.2 °C 1020.3 hPa Calm     92% 0.0 mm 0 W/m2
06:44 8.2 °C 7 °C 1020.3 hPa Calm     92.1% 0.0 mm 0 W/m2
06:49 8.2 °C 7.1 °C 1020.3 hPa Calm     93.2% 0.0 mm 0 W/m2
06:54 8.2 °C 7.1 °C 1020.3 hPa Calm     93% 0.0 mm 0 W/m2
06:59 8.2 °C 7.1 °C 1020.3 hPa Calm     92.9% 0.0 mm 0 W/m2
07:04 8 °C 6.8 °C 1020.3 hPa Calm     92.4% 0.0 mm 0 W/m2
07:09 8 °C 6.9 °C 1020.3 hPa Calm     93% 0.0 mm 0 W/m2
07:14 8 °C 6.9 °C 1020.3 hPa Calm     93% 0.0 mm 0 W/m2
07:19 8 °C 6.8 °C 1020.3 hPa Calm     92.2% 0.0 mm 0 W/m2
07:24 8 °C 6.8 °C 1020.3 hPa Calm     92.4% 0.0 mm 2 W/m2
07:29 8 °C 6.9 °C 1020.3 hPa Calm     93.1% 0.0 mm 5 W/m2
07:34 8.1 °C 6.8 °C 1020.3 hPa Calm     91.8% 0.0 mm 10 W/m2
07:39 8.3 °C 6.8 °C 1020.7 hPa Calm     90.1% 0.0 mm 16 W/m2
07:44 8.6 °C 7 °C 1020.7 hPa Calm     89.6% 0.0 mm 21 W/m2
07:49 8.7 °C 6.9 °C 1020.7 hPa Calm     88.8% 0.0 mm 26 W/m2
07:54 8.8 °C 6.8 °C 1020.7 hPa Calm     87.9% 0.0 mm 31 W/m2
07:59 9 °C 7 °C 1020.7 hPa Calm     86.8% 0.0 mm 35 W/m2
08:04 9.9 °C 7.8 °C 1020.7 hPa Calm     87.1% 0.0 mm 40 W/m2
08:09 9.9 °C 8.2 °C 1020.7 hPa Calm     88.7% 0.0 mm 45 W/m2
08:14 10 °C 7.9 °C 1021.0 hPa Calm     86.7% 0.0 mm 49 W/m2
08:19 10.3 °C 7.7 °C 1020.7 hPa Calm     84.1% 0.0 mm 53 W/m2
08:24 10.7 °C 7.9 °C 1021.0 hPa Calm     83.1% 0.0 mm 57 W/m2
08:29 10.8 °C 7.8 °C 1021.0 hPa Calm     82% 0.0 mm 62 W/m2
08:34 10.9 °C 8 °C 1021.0 hPa Calm     82.5% 0.0 mm 65 W/m2
08:39 11 °C 8.1 °C 1021.0 hPa Calm     82.3% 0.0 mm 68 W/m2
08:44 11.2 °C 8.2 °C 1021.0 hPa Calm     81.9% 0.0 mm 70 W/m2
08:49 11.4 °C 7.8 °C 1021.0 hPa Calm     78.7% 0.0 mm 74 W/m2
08:54 11.5 °C 8.2 °C 1021.0 hPa Calm     80% 0.0 mm 75 W/m2
08:59 11.7 °C 8.3 °C 1020.7 hPa Calm     79.7% 0.0 mm 79 W/m2
09:04 11.5 °C 8.9 °C 1020.7 hPa Calm     84% 0.0 mm 80 W/m2
09:09 11.5 °C 9.1 °C 1020.7 hPa Calm     85% 0.0 mm 81 W/m2
09:14 11.4 °C 9.1 °C 1020.7 hPa Calm     85.6% 0.0 mm 82 W/m2
09:19 11.5 °C 9.3 °C 1021.0 hPa Calm     86.3% 0.0 mm 84 W/m2
09:24 11.6 °C 9.8 °C 1021.0 hPa Calm     88.9% 0.0 mm 86 W/m2
09:29 11.6 °C 10 °C 1021.0 hPa Calm     90% 0.0 mm 87 W/m2
09:34 11.6 °C 9.8 °C 1021.0 hPa Calm     89% 0.0 mm 87 W/m2
09:39 11.6 °C 9.8 °C 1021.0 hPa Calm     89% 0.0 mm 88 W/m2
09:44 11.9 °C 9.6 °C 1020.7 hPa Calm     86% 0.0 mm 90 W/m2
09:49 12 °C 9.7 °C 1021.0 hPa Calm     85.7% 0.0 mm 91 W/m2
09:54 12 °C 10.1 °C 1021.0 hPa Calm     88% 0.0 mm 92 W/m2
09:59 12 °C 10.2 °C 1021.0 hPa Calm     88.9% 0.0 mm 92 W/m2
10:04 13.1 °C 10.8 °C 1021.0 hPa SE 0.4 km/h 7.9 km/h 85.8% 0.0 mm 94 W/m2
10:09 13.1 °C 10.5 °C 1021.0 hPa Calm   4 km/h 84.4% 0.0 mm 95 W/m2
10:14 13.1 °C 11 °C 1021.0 hPa Calm   4 km/h 86.9% 0.0 mm 97 W/m2
10:19 13 °C 10.9 °C 1021.0 hPa SSE 0.1 km/h 4 km/h 86.9% 0.0 mm 99 W/m2
10:24 12.5 °C 10.6 °C 1021.0 hPa ENE 0.1 km/h 4 km/h 88.1% 0.0 mm 102 W/m2
10:29 12.5 °C 10.4 °C 1020.7 hPa SE 0.6 km/h 7.9 km/h 87.2% 0.0 mm 105 W/m2
10:34 12.6 °C 10.6 °C 1021.0 hPa NE 0.4 km/h 7.9 km/h 88% 0.0 mm 107 W/m2
10:39 12.5 °C 11 °C 1021.0 hPa NE 0.1 km/h 4 km/h 90.2% 0.0 mm 111 W/m2
10:44 12.8 °C 10.8 °C 1021.0 hPa Calm   4 km/h 87.4% 0.0 mm 115 W/m2
10:49 12.8 °C 10.8 °C 1021.0 hPa ENE 0.6 km/h 7.9 km/h 87.4% 0.0 mm 118 W/m2
10:54 12.8 °C 10.7 °C 1020.7 hPa SSE 0.3 km/h 4 km/h 86.8% 0.0 mm 123 W/m2
10:59 12.9 °C 10.9 °C 1021.0 hPa ENE 1 km/h 7.9 km/h 87.6% 0.0 mm 128 W/m2
11:04 12.4 °C 10.6 °C 1020.7 hPa ENE 0.5 km/h 7.9 km/h 88.8% 0.0 mm 133 W/m2
11:09 12.4 °C 10.7 °C 1020.7 hPa NNW 0.7 km/h 12.2 km/h 89.2% 0.0 mm 135 W/m2
11:14 12.4 °C 10.8 °C 1021.0 hPa NE 1 km/h 7.9 km/h 89.6% 0.0 mm 141 W/m2
11:19 12.5 °C 10.8 °C 1020.7 hPa ENE 0.4 km/h 4 km/h 89.6% 0.0 mm 146 W/m2
11:24 12.6 °C 10.8 °C 1020.7 hPa Calm   4 km/h 89% 0.0 mm 146 W/m2
11:29 12.7 °C 10.8 °C 1020.7 hPa Calm     88% 0.0 mm 126 W/m2
11:34 12.7 °C 11 °C 1020.3 hPa NE 0.1 km/h 4 km/h 89.3% 0.0 mm 105 W/m2
11:39 12.7 °C 11.2 °C 1020.3 hPa ESE 0.6 km/h 7.9 km/h 90.8% 0.0 mm 104 W/m2
11:44 13 °C 11.3 °C 1020.3 hPa NE 0.3 km/h 4 km/h 89.4% 0.0 mm 104 W/m2
11:49 13 °C 11.3 °C 1020.3 hPa Calm   4 km/h 89.6% 0.0 mm 104 W/m2
11:54 12.9 °C 11.2 °C 1020.0 hPa Calm     89% 0.0 mm 114 W/m2
11:59 12.9 °C 11.2 °C 1020.0 hPa ENE 0.3 km/h 7.9 km/h 89.4% 0.0 mm 180 W/m2
12:04 13.5 °C 11.3 °C 1020.0 hPa Calm   4 km/h 86.9% 0.0 mm 202 W/m2
12:09 13.6 °C 11.3 °C 1019.6 hPa Calm   4 km/h 85.8% 0.0 mm 212 W/m2
12:14 13.7 °C 11.4 °C 1019.6 hPa Calm     85.8% 0.0 mm 218 W/m2
12:19 13.7 °C 11.6 °C 1019.6 hPa NE 0.4 km/h 4 km/h 87.6% 0.0 mm 224 W/m2
12:24 13.4 °C 11.4 °C 1019.6 hPa NNE 0.6 km/h 7.9 km/h 88.1% 0.0 mm 229 W/m2
12:29 13.1 °C 11.2 °C 1019.6 hPa NNE 0.3 km/h 7.9 km/h 88.3% 0.0 mm 239 W/m2
12:34 13.1 °C 11.2 °C 1019.6 hPa NNE 0.1 km/h 7.9 km/h 87.6% 0.0 mm 252 W/m2
12:39 13.2 °C 10.8 °C 1019.6 hPa Calm   4 km/h 85.4% 0.0 mm 267 W/m2
12:44 13.5 °C 11.3 °C 1019.6 hPa NNE 0.4 km/h 7.9 km/h 86.9% 0.0 mm 274 W/m2
12:49 13.5 °C 11.3 °C 1019.6 hPa Calm     86.6% 0.0 mm 280 W/m2
12:54 13.6 °C 11.1 °C 1019.3 hPa Calm     85.2% 0.0 mm 290 W/m2
12:59 13.7 °C 11.2 °C 1019.0 hPa ESE 0.4 km/h 4 km/h 84.8% 0.0 mm 292 W/m2
13:04 13.6 °C 11.3 °C 1019.0 hPa Calm   4 km/h 85.9% 0.0 mm 293 W/m2
13:09 13.6 °C 11.2 °C 1019.0 hPa East 0.3 km/h 4 km/h 85.9% 0.0 mm 297 W/m2
13:14 13.6 °C 11.3 °C 1019.0 hPa North 0.9 km/h 7.9 km/h 86.2% 0.0 mm 295 W/m2
13:19 13.7 °C 11.4 °C 1019.0 hPa ENE 0.1 km/h 4 km/h 86.2% 0.0 mm 297 W/m2
13:24 14.2 °C 11.7 °C 1018.6 hPa ESE 0.4 km/h 7.9 km/h 85.2% 0.0 mm 300 W/m2
13:29 14.4 °C 11.7 °C 1019.0 hPa East 0.4 km/h 7.9 km/h 84% 0.0 mm 303 W/m2
13:34 14.3 °C 11.9 °C 1018.6 hPa Calm     85.5% 0.0 mm 302 W/m2
13:39 14.3 °C 11.6 °C 1018.6 hPa ESE 0.1 km/h 4 km/h 84% 0.0 mm 307 W/m2
13:44 15.1 °C 12 °C 1018.6 hPa Calm   4 km/h 81.7% 0.0 mm 305 W/m2
13:49 15.5 °C 12.2 °C 1018.6 hPa Calm   7.9 km/h 80.8% 0.0 mm 298 W/m2
13:54 15.4 °C 12.2 °C 1018.6 hPa SSE 0.2 km/h 4 km/h 81% 0.0 mm 293 W/m2
13:59 15.4 °C 12.1 °C 1018.3 hPa Calm     80.4% 0.0 mm 295 W/m2
14:04 15.2 °C 12.1 °C 1018.3 hPa Calm   4 km/h 81.8% 0.0 mm 294 W/m2
14:09 15.1 °C 11.8 °C 1018.3 hPa South 0.8 km/h 7.9 km/h 80.4% 0.0 mm 293 W/m2
14:14 15.2 °C 11.7 °C 1018.3 hPa Calm     79% 0.0 mm 292 W/m2
14:19 15.4 °C 12 °C 1018.3 hPa SSE 0.9 km/h 7.9 km/h 80% 0.0 mm 279 W/m2
14:24 15.5 °C 12.2 °C 1018.0 hPa SSE 0.2 km/h 4 km/h 80.1% 0.0 mm 278 W/m2
14:29 15.6 °C 12.2 °C 1018.0 hPa South 0.9 km/h 7.9 km/h 80% 0.0 mm 277 W/m2
14:34 15.7 °C 12.1 °C 1018.3 hPa Calm   4 km/h 79.1% 0.0 mm 271 W/m2
14:39 15.7 °C 12.2 °C 1018.3 hPa SE 0.6 km/h 7.9 km/h 79.8% 0.0 mm 266 W/m2
14:44 15.5 °C 12.2 °C 1018.0 hPa SSE 2 km/h 7.9 km/h 80.4% 0.0 mm 260 W/m2
14:49 15.3 °C 11.9 °C 1018.0 hPa SSE 0.8 km/h 7.9 km/h 80.2% 0.0 mm 257 W/m2
14:54 15.3 °C 11.9 °C 1018.0 hPa South 0.2 km/h 4 km/h 79.8% 0.0 mm 249 W/m2
14:59 15.4 °C 11.9 °C 1018.0 hPa Calm   4 km/h 79.6% 0.0 mm 241 W/m2
15:04 15.4 °C 12 °C 1018.0 hPa Calm     79.9% 0.0 mm 231 W/m2
15:09 15.5 °C 12.1 °C 1018.0 hPa South 0.4 km/h 7.9 km/h 79.9% 0.0 mm 229 W/m2
15:14 15.6 °C 12 °C 1017.6 hPa SSE 0.6 km/h 7.9 km/h 79.2% 0.0 mm 218 W/m2
15:19 15.5 °C 12.2 °C 1018.0 hPa Calm   4 km/h 80.8% 0.0 mm 208 W/m2
15:24 15.4 °C 12.1 °C 1018.0 hPa Calm     80.3% 0.0 mm 212 W/m2
15:29 15.4 °C 12.1 °C 1018.0 hPa Calm   4 km/h 80.5% 0.0 mm 210 W/m2
15:34 15.4 °C 11.9 °C 1018.0 hPa Calm   4 km/h 79.8% 0.0 mm 204 W/m2
15:39 15.3 °C 12.1 °C 1018.0 hPa Calm   4 km/h 81% 0.0 mm 106 W/m2
15:44 15 °C 11.9 °C 1018.0 hPa Calm   4 km/h 81% 0.0 mm 83 W/m2
15:49 14.8 °C 11.7 °C 1018.0 hPa Calm   4 km/h 81.4% 0.0 mm 80 W/m2
15:54 14.8 °C 11.8 °C 1018.0 hPa SSE 0.1 km/h 4 km/h 82% 0.0 mm 74 W/m2
15:59 14.7 °C 11.7 °C 1018.0 hPa Calm     82.5% 0.0 mm 61 W/m2
16:04 14.4 °C 11.6 °C 1018.0 hPa Calm     83% 0.0 mm 51 W/m2
16:09 14 °C 11.2 °C 1018.0 hPa Calm   4 km/h 83% 0.0 mm 50 W/m2
16:14 14 °C 11.2 °C 1018.0 hPa Calm   4 km/h 83.4% 0.0 mm 46 W/m2
16:19 14 °C 11.3 °C 1018.0 hPa Calm     84% 0.0 mm 37 W/m2
16:24 13.8 °C 11.2 °C 1018.0 hPa Calm     84.6% 0.0 mm 31 W/m2
16:29 13.5 °C 11 °C 1018.0 hPa Calm     85% 0.0 mm 27 W/m2
16:34 13.5 °C 11.1 °C 1018.0 hPa Calm     85.4% 0.0 mm 24 W/m2
16:39 13.4 °C 11.1 °C 1018.0 hPa Calm     86% 0.0 mm 21 W/m2
16:44 13.1 °C 11 °C 1018.0 hPa Calm     86.9% 0.0 mm 18 W/m2
16:49 12.6 °C 10.5 °C 1018.0 hPa Calm     87% 0.0 mm 13 W/m2
16:54 12.6 °C 10.7 °C 1018.0 hPa Calm     87.8% 0.0 mm 10 W/m2
16:59 12.5 °C 10.7 °C 1018.0 hPa Calm     88.1% 0.0 mm 8 W/m2
17:04 12.4 °C 10.6 °C 1018.0 hPa Calm     89% 0.0 mm 5 W/m2
17:09 12.1 °C 10.3 °C 1018.0 hPa Calm     89.2% 0.0 mm 3 W/m2
17:14 12.1 °C 10.5 °C 1018.0 hPa Calm     90% 0.0 mm 0 W/m2
17:19 12 °C 10.4 °C 1018.0 hPa Calm     90% 0.0 mm 0 W/m2
17:24 11.8 °C 10.5 °C 1018.0 hPa Calm     91% 0.0 mm 0 W/m2
17:29 11.6 °C 10.1 °C 1018.0 hPa Calm     90.4% 0.0 mm 0 W/m2
17:34 11.5 °C 10.1 °C 1018.0 hPa Calm     90.9% 0.0 mm 0 W/m2
17:39 11.5 °C 10.2 °C 1018.3 hPa Calm     91.7% 0.0 mm 0 W/m2
17:44 11.4 °C 10.1 °C 1018.3 hPa Calm     91.9% 0.0 mm 0 W/m2
17:49 11.2 °C 9.8 °C 1018.3 hPa Calm     91.1% 0.0 mm 0 W/m2
17:54 11.2 °C 9.8 °C 1018.3 hPa Calm     91% 0.0 mm 0 W/m2
17:59 11.2 °C 9.8 °C 1018.3 hPa Calm     91% 0.0 mm 0 W/m2
18:04 11.3 °C 9.9 °C 1018.3 hPa Calm     91% 0.0 mm 0 W/m2
18:09 11.4 °C 10 °C 1018.3 hPa SSW 0.1 km/h 4 km/h 90.9% 0.0 mm 0 W/m2
18:14 11.4 °C 9.8 °C 1018.3 hPa Calm   4 km/h 90% 0.0 mm 0 W/m2
18:19 11.5 °C 9.8 °C 1018.6 hPa Calm     89.7% 0.0 mm 0 W/m2
18:24 11.6 °C 9.8 °C 1018.6 hPa South 0.3 km/h 4 km/h 89.3% 0.0 mm 0 W/m2
18:29 11.9 °C 10.1 °C 1018.6 hPa South 1.8 km/h 7.9 km/h 89% 0.0 mm 0 W/m2
18:34 11.9 °C 10.2 °C 1018.6 hPa Calm   7.9 km/h 89.7% 0.0 mm 0 W/m2
18:39 11.8 °C 10.3 °C 1018.6 hPa Calm     90.2% 0.0 mm 0 W/m2
18:44 11.7 °C 10.3 °C 1018.6 hPa Calm     91% 0.0 mm 0 W/m2
18:49 11.3 °C 9.9 °C 1018.6 hPa Calm     91% 0.0 mm 0 W/m2
18:54 11.3 °C 9.9 °C 1019.0 hPa Calm     91% 0.0 mm 0 W/m2
18:59 11.3 °C 9.9 °C 1019.0 hPa Calm     91.3% 0.0 mm 0 W/m2
19:04 11.2 °C 9.8 °C 1019.0 hPa Calm     91% 0.0 mm 0 W/m2
19:09 11.2 °C 9.8 °C 1019.0 hPa Calm     91% 0.0 mm 0 W/m2
19:14 11.2 °C 9.9 °C 1019.0 hPa Calm     92% 0.0 mm 0 W/m2
19:19 11.2 °C 9.9 °C 1019.0 hPa Calm     92% 0.0 mm 0 W/m2
19:24 11.2 °C 9.9 °C 1019.0 hPa Calm     91.9% 0.0 mm 0 W/m2
19:29 11.3 °C 9.9 °C 1019.0 hPa Calm     91% 0.0 mm 0 W/m2
19:34 11.3 °C 9.9 °C 1019.0 hPa South 0.5 km/h 7.9 km/h 90.8% 0.0 mm 0 W/m2
19:39 11.3 °C 10 °C 1019.0 hPa SSW 0.4 km/h 4 km/h 91.7% 0.0 mm 0 W/m2
19:44 11.3 °C 10.2 °C 1019.0 hPa Calm   7.9 km/h 93% 0.0 mm 0 W/m2
19:49 11.1 °C 9.9 °C 1019.0 hPa SSW 1.4 km/h 12.2 km/h 92.2% 0.0 mm 0 W/m2
19:54 11.1 °C 9.9 °C 1019.0 hPa SSW 1.9 km/h 12.2 km/h 92.7% 0.0 mm 0 W/m2
19:59 11.1 °C 10 °C 1019.0 hPa Calm   4 km/h 93% 0.0 mm 0 W/m2
20:04 11.1 °C 10 °C 1019.3 hPa Calm     93% 0.0 mm 0 W/m2
20:09 10.9 °C 9.7 °C 1019.3 hPa SSE 0.3 km/h 7.9 km/h 92.4% 0.0 mm 0 W/m2
20:14 10.9 °C 9.5 °C 1019.3 hPa SSW 3.1 km/h 12.2 km/h 91.1% 0.0 mm 0 W/m2
20:19 11 °C 9.4 °C 1019.0 hPa South 2.8 km/h 12.2 km/h 90.2% 0.0 mm 0 W/m2
20:24 11.1 °C 9.5 °C 1019.3 hPa South 2.8 km/h 7.9 km/h 89.6% 0.0 mm 0 W/m2
20:29 11.6 °C 9.8 °C 1019.3 hPa SSW 2.1 km/h 12.2 km/h 89% 0.0 mm 0 W/m2
20:34 11.5 °C 9.7 °C 1019.3 hPa SSW 0.7 km/h 12.2 km/h 89.1% 0.0 mm 0 W/m2
20:39 11.5 °C 9.9 °C 1019.3 hPa Calm     90% 0.0 mm 0 W/m2
20:44 11.5 °C 9.9 °C 1019.6 hPa SSW 0.3 km/h 4 km/h 90.3% 0.0 mm 0 W/m2
20:49 11.1 °C 9.8 °C 1019.6 hPa Calm     91% 0.0 mm 0 W/m2
20:54 11.1 °C 9.8 °C 1019.6 hPa Calm     91.7% 0.0 mm 0 W/m2
20:59 11 °C 9.7 °C 1019.6 hPa Calm   4 km/h 91.8% 0.0 mm 0 W/m2
21:04 11 °C 9.7 °C 1019.6 hPa SW 0.2 km/h 4 km/h 91.3% 0.0 mm 0 W/m2
21:09 11.1 °C 9.7 °C 1019.6 hPa Calm   4 km/h 91% 0.0 mm 0 W/m2
21:14 11 °C 9.6 °C 1019.6 hPa Calm     91.2% 0.0 mm 0 W/m2
21:19 11 °C 9.6 °C 1019.6 hPa Calm   4 km/h 91% 0.0 mm 0 W/m2
21:24 11 °C 9.6 °C 1019.6 hPa Calm   4 km/h 91% 0.0 mm 0 W/m2
21:29 11 °C 9.6 °C 1020.0 hPa South 0.3 km/h 4 km/h 91% 0.0 mm 0 W/m2
21:34 11.1 °C 9.7 °C 1020.0 hPa SW 0.4 km/h 4 km/h 91.2% 0.0 mm 0 W/m2
21:39 11.1 °C 9.8 °C 1020.0 hPa SW 0.4 km/h 4 km/h 91.8% 0.0 mm 0 W/m2
21:44 11.1 °C 9.8 °C 1020.0 hPa Calm   4 km/h 92% 0.0 mm 0 W/m2
21:49 11.1 °C 9.8 °C 1020.0 hPa SSW 0.1 km/h 4 km/h 92.2% 0.0 mm 0 W/m2
21:54 11.1 °C 10.1 °C 1020.3 hPa Calm     93.6% 0.0 mm 0 W/m2
21:59 11.1 °C 10.2 °C 1020.3 hPa Calm     94.2% 0.0 mm 0 W/m2
22:04 11 °C 10.1 °C 1020.3 hPa Calm     94.6% 0.0 mm 0 W/m2
22:09 10.6 °C 9.8 °C 1020.3 hPa Calm     94.8% 0.0 mm 0 W/m2
22:14 10.5 °C 9.6 °C 1020.3 hPa Calm     94.1% 0.0 mm 0 W/m2
22:19 10.5 °C 9.4 °C 1020.3 hPa SSE 0.8 km/h 12.2 km/h 92.9% 0.0 mm 0 W/m2
22:24 10.7 °C 9.4 °C 1020.3 hPa South 2.2 km/h 16.3 km/h 92% 0.0 mm 0 W/m2
22:29 11.1 °C 9.8 °C 1020.3 hPa South 2.7 km/h 12.2 km/h 92% 0.0 mm 0 W/m2
22:34 11.2 °C 9.9 °C 1020.3 hPa South 4 km/h 12.2 km/h 92% 0.0 mm 0 W/m2
22:39 11.2 °C 10.1 °C 1020.3 hPa SSW 3.9 km/h 12.2 km/h 93% 0.0 mm 0 W/m2
22:44 11.2 °C 10.2 °C 1020.3 hPa South 2.7 km/h 12.2 km/h 93.4% 0.0 mm 0 W/m2
22:49 11.2 °C 10.3 °C 1020.3 hPa South 2.3 km/h 7.9 km/h 94.3% 0.0 mm 0 W/m2
22:54 11.2 °C 10.4 °C 1020.3 hPa South 1.8 km/h 12.2 km/h 95% 0.0 mm 0 W/m2
22:59 11.2 °C 10.5 °C 1020.3 hPa SSE 0.9 km/h 7.9 km/h 95.4% 0.0 mm 0 W/m2
23:04 11.2 °C 10.6 °C 1020.7 hPa South 0.3 km/h 7.9 km/h 96.2% 0.0 mm 0 W/m2
23:09 10.7 °C 10.1 °C 1020.7 hPa Calm     96.3% 0.0 mm 0 W/m2
23:14 10.4 °C 10 °C 1020.7 hPa Calm     97.7% 0.0 mm 0 W/m2
23:19 10.3 °C 10.1 °C 1020.7 hPa Calm     99% 0.0 mm 0 W/m2
23:24 10.2 °C 9.9 °C 1020.7 hPa Calm     99% 0.0 mm 0 W/m2
23:29 10 °C 9.8 °C 1020.7 hPa Calm     99% 0.0 mm 0 W/m2
23:34 10 °C 9.8 °C 1020.7 hPa Calm     99% 0.0 mm 0 W/m2
23:39 10 °C 9.8 °C 1020.7 hPa SSW 0.4 km/h 7.9 km/h 99% 0.0 mm 0 W/m2
23:44 10 °C 9.8 °C 1020.7 hPa SSW 0.6 km/h 7.9 km/h 99% 0.0 mm 0 W/m2
23:49 10.3 °C 10.1 °C 1020.7 hPa South 0.5 km/h 7.9 km/h 99% 0.0 mm 0 W/m2
23:54 10.4 °C 10.2 °C 1020.3 hPa SSW 1.4 km/h 7.9 km/h 99% 0.0 mm 0 W/m2
23:59 10.4 °C 10.2 °C 1020.7 hPa SSW 0.8 km/h 7.9 km/h 99% 0.0 mm 0 W/m2
Juneau County Weather
Compliments of Weather Underground - 2 mb